sensor_id;sensor_type;location;lat;lon;timestamp;pressure;altitude;pressure_sealevel;temperature;humidity
32851;BME280;19202;48.992;8.390;2022-12-18T00:00:53;101626.91;;;-5.29;71.31
32851;BME280;19202;48.992;8.390;2022-12-18T00:06:32;101643.19;;;-5.30;71.65
32851;BME280;19202;48.992;8.390;2022-12-18T00:12:10;101639.41;;;-5.37;71.73
32851;BME280;19202;48.992;8.390;2022-12-18T00:17:48;101640.97;;;-5.40;71.90
32851;BME280;19202;48.992;8.390;2022-12-18T00:23:26;101636.78;;;-5.38;71.80
32851;BME280;19202;48.992;8.390;2022-12-18T00:29:08;101640.47;;;-5.33;71.43
32851;BME280;19202;48.992;8.390;2022-12-18T00:34:47;101633.78;;;-5.47;72.15
32851;BME280;19202;48.992;8.390;2022-12-18T00:40:25;101665.00;;;-5.41;71.39
32851;BME280;19202;48.992;8.390;2022-12-18T00:46:03;101660.22;;;-5.51;72.26
32851;BME280;19202;48.992;8.390;2022-12-18T00:51:41;101641.03;;;-5.56;72.33
32851;BME280;19202;48.992;8.390;2022-12-18T00:57:19;101642.66;;;-5.58;71.80
32851;BME280;19202;48.992;8.390;2022-12-18T01:02:57;101644.44;;;-5.57;72.23
32851;BME280;19202;48.992;8.390;2022-12-18T01:08:35;101641.34;;;-5.50;72.41
32851;BME280;19202;48.992;8.390;2022-12-18T01:14:13;101644.28;;;-5.43;72.19
32851;BME280;19202;48.992;8.390;2022-12-18T01:19:51;101652.53;;;-5.32;72.11
32851;BME280;19202;48.992;8.390;2022-12-18T01:25:30;101637.22;;;-5.29;71.93
32851;BME280;19202;48.992;8.390;2022-12-18T01:31:13;101628.59;;;-5.30;72.19
32851;BME280;19202;48.992;8.390;2022-12-18T01:36:52;101627.72;;;-5.30;72.17
32851;BME280;19202;48.992;8.390;2022-12-18T01:42:30;101638.97;;;-5.28;72.34
32851;BME280;19202;48.992;8.390;2022-12-18T01:48:08;101653.22;;;-5.36;73.32
32851;BME280;19202;48.992;8.390;2022-12-18T01:53:47;101654.59;;;-5.43;73.65
32851;BME280;19202;48.992;8.390;2022-12-18T01:59:25;101641.03;;;-5.39;73.66
32851;BME280;19202;48.992;8.390;2022-12-18T02:05:03;101645.75;;;-5.30;72.89
32851;BME280;19202;48.992;8.390;2022-12-18T02:10:57;101654.34;;;-5.31;73.27
32851;BME280;19202;48.992;8.390;2022-12-18T02:22:57;101664.13;;;-5.24;72.62
32851;BME280;19202;48.992;8.390;2022-12-18T02:28:47;101650.78;;;-5.33;72.87
32851;BME280;19202;48.992;8.390;2022-12-18T02:34:30;101658.44;;;-5.35;72.42
32851;BME280;19202;48.992;8.390;2022-12-18T02:40:10;101661.84;;;-5.36;72.46
32851;BME280;19202;48.992;8.390;2022-12-18T02:45:55;101664.34;;;-5.37;72.06
32851;BME280;19202;48.992;8.390;2022-12-18T02:51:47;101662.06;;;-5.31;71.75
32851;BME280;19202;48.992;8.390;2022-12-18T02:57:36;101652.72;;;-5.29;71.93
32851;BME280;19202;48.992;8.390;2022-12-18T03:09:06;101661.84;;;-5.18;71.64
32851;BME280;19202;48.992;8.390;2022-12-18T03:14:44;101668.25;;;-5.10;71.37
32851;BME280;19202;48.992;8.390;2022-12-18T03:20:25;101661.41;;;-5.09;71.17
32851;BME280;19202;48.992;8.390;2022-12-18T03:26:08;101673.94;;;-5.17;71.02
32851;BME280;19202;48.992;8.390;2022-12-18T03:31:50;101668.25;;;-5.28;71.51
32851;BME280;19202;48.992;8.390;2022-12-18T03:37:30;101656.97;;;-5.30;71.72
32851;BME280;19202;48.992;8.390;2022-12-18T03:43:20;101651.53;;;-5.36;71.51
32851;BME280;19202;48.992;8.390;2022-12-18T03:49:11;101661.91;;;-5.52;71.65
32851;BME280;19202;48.992;8.390;2022-12-18T03:54:50;101649.91;;;-5.51;71.45
32851;BME280;19202;48.992;8.390;2022-12-18T04:00:30;101652.25;;;-5.38;71.28
32851;BME280;19202;48.992;8.390;2022-12-18T04:06:09;101650.13;;;-5.29;70.87
32851;BME280;19202;48.992;8.390;2022-12-18T04:11:47;101647.69;;;-5.26;71.13
32851;BME280;19202;48.992;8.390;2022-12-18T04:17:25;101635.59;;;-5.27;71.29
32851;BME280;19202;48.992;8.390;2022-12-18T04:23:03;101649.91;;;-5.34;72.20
32851;BME280;19202;48.992;8.390;2022-12-18T04:28:41;101637.91;;;-5.33;72.72
32851;BME280;19202;48.992;8.390;2022-12-18T04:34:20;101644.22;;;-5.27;73.11
32851;BME280;19202;48.992;8.390;2022-12-18T04:39:58;101668.19;;;-5.29;74.80
32851;BME280;19202;48.992;8.390;2022-12-18T04:45:36;101656.75;;;-5.34;75.76
32851;BME280;19202;48.992;8.390;2022-12-18T04:51:14;101661.25;;;-5.30;75.70
32851;BME280;19202;48.992;8.390;2022-12-18T04:56:52;101663.03;;;-5.29;76.69
32851;BME280;19202;48.992;8.390;2022-12-18T05:02:30;101666.56;;;-5.27;77.12
32851;BME280;19202;48.992;8.390;2022-12-18T05:08:08;101667.53;;;-5.25;78.18
32851;BME280;19202;48.992;8.390;2022-12-18T05:13:45;101670.69;;;-5.13;77.37
32851;BME280;19202;48.992;8.390;2022-12-18T05:19:23;101672.72;;;-5.06;77.69
32851;BME280;19202;48.992;8.390;2022-12-18T05:25:01;101675.66;;;-4.98;78.07
32851;BME280;19202;48.992;8.390;2022-12-18T05:30:39;101663.94;;;-4.92;77.90
32851;BME280;19202;48.992;8.390;2022-12-18T05:36:17;101665.75;;;-4.72;77.03
32851;BME280;19202;48.992;8.390;2022-12-18T05:41:54;101666.31;;;-4.60;76.93
32851;BME280;19202;48.992;8.390;2022-12-18T05:47:33;101673.56;;;-4.53;77.06
32851;BME280;19202;48.992;8.390;2022-12-18T05:53:12;101669.13;;;-4.55;77.71
32851;BME280;19202;48.992;8.390;2022-12-18T05:58:52;101681.97;;;-4.57;78.42
32851;BME280;19202;48.992;8.390;2022-12-18T06:04:31;101679.38;;;-4.57;78.42
32851;BME280;19202;48.992;8.390;2022-12-18T06:10:09;101688.44;;;-4.47;78.60
32851;BME280;19202;48.992;8.390;2022-12-18T06:15:47;101692.50;;;-4.52;78.47
32851;BME280;19202;48.992;8.390;2022-12-18T06:21:26;101704.38;;;-4.56;78.61
32851;BME280;19202;48.992;8.390;2022-12-18T06:27:04;101710.66;;;-4.51;78.83
32851;BME280;19202;48.992;8.390;2022-12-18T06:32:42;101718.69;;;-4.45;78.69
32851;BME280;19202;48.992;8.390;2022-12-18T06:38:20;101730.53;;;-4.31;77.59
32851;BME280;19202;48.992;8.390;2022-12-18T06:43:58;101738.13;;;-4.34;78.46
32851;BME280;19202;48.992;8.390;2022-12-18T06:49:36;101744.25;;;-4.32;78.61
32851;BME280;19202;48.992;8.390;2022-12-18T06:55:14;101734.59;;;-4.36;78.65
32851;BME280;19202;48.992;8.390;2022-12-18T07:00:52;101738.41;;;-4.28;78.65
32851;BME280;19202;48.992;8.390;2022-12-18T07:06:30;101740.47;;;-4.20;78.21
32851;BME280;19202;48.992;8.390;2022-12-18T07:12:08;101745.72;;;-4.19;77.93
32851;BME280;19202;48.992;8.390;2022-12-18T07:17:45;101743.75;;;-4.24;78.21
32851;BME280;19202;48.992;8.390;2022-12-18T07:23:23;101737.34;;;-4.13;78.16
32851;BME280;19202;48.992;8.390;2022-12-18T07:29:01;101741.31;;;-4.02;77.90
32851;BME280;19202;48.992;8.390;2022-12-18T07:34:39;101750.69;;;-3.85;77.50
32851;BME280;19202;48.992;8.390;2022-12-18T07:40:17;101757.06;;;-3.77;76.95
32851;BME280;19202;48.992;8.390;2022-12-18T07:45:55;101762.19;;;-3.79;77.18
32851;BME280;19202;48.992;8.390;2022-12-18T07:51:32;101759.81;;;-3.74;77.04
32851;BME280;19202;48.992;8.390;2022-12-18T07:57:10;101773.69;;;-3.72;77.69
32851;BME280;19202;48.992;8.390;2022-12-18T08:02:48;101787.44;;;-3.73;77.12
32851;BME280;19202;48.992;8.390;2022-12-18T08:08:27;101791.22;;;-3.65;77.79
32851;BME280;19202;48.992;8.390;2022-12-18T08:14:05;101801.84;;;-3.59;77.28
32851;BME280;19202;48.992;8.390;2022-12-18T08:19:43;101792.50;;;-3.56;77.64
32851;BME280;19202;48.992;8.390;2022-12-18T08:25:21;101792.31;;;-3.41;76.68
32851;BME280;19202;48.992;8.390;2022-12-18T08:30:59;101781.22;;;-3.38;76.50
32851;BME280;19202;48.992;8.390;2022-12-18T08:36:36;101768.38;;;-3.35;76.14
32851;BME280;19202;48.992;8.390;2022-12-18T08:42:14;101769.22;;;-3.36;76.02
32851;BME280;19202;48.992;8.390;2022-12-18T08:48:11;101755.38;;;-3.37;75.92
32851;BME280;19202;48.992;8.390;2022-12-18T08:53:49;101748.09;;;-3.26;75.82
32851;BME280;19202;48.992;8.390;2022-12-18T08:59:27;101744.59;;;-3.27;75.66
32851;BME280;19202;48.992;8.390;2022-12-18T09:05:05;101735.41;;;-3.20;75.43
32851;BME280;19202;48.992;8.390;2022-12-18T09:10:48;101733.06;;;-3.14;75.20
32851;BME280;19202;48.992;8.390;2022-12-18T09:16:27;101735.22;;;-3.04;75.01
32851;BME280;19202;48.992;8.390;2022-12-18T09:22:06;101756.81;;;-3.04;74.81
32851;BME280;19202;48.992;8.390;2022-12-18T09:27:46;101758.25;;;-2.90;75.58
32851;BME280;19202;48.992;8.390;2022-12-18T09:33:24;101768.78;;;-2.85;75.07
32851;BME280;19202;48.992;8.390;2022-12-18T09:39:03;101791.59;;;-2.77;74.64
32851;BME280;19202;48.992;8.390;2022-12-18T09:44:45;101782.31;;;-2.72;74.08
32851;BME280;19202;48.992;8.390;2022-12-18T09:50:31;101768.91;;;-2.62;73.96
32851;BME280;19202;48.992;8.390;2022-12-18T09:56:16;101794.13;;;-2.58;73.45
32851;BME280;19202;48.992;8.390;2022-12-18T10:01:56;101803.06;;;-2.49;73.23
32851;BME280;19202;48.992;8.390;2022-12-18T10:07:53;101814.28;;;-2.28;72.91
32851;BME280;19202;48.992;8.390;2022-12-18T10:13:41;101816.53;;;-2.15;72.29
32851;BME280;19202;48.992;8.390;2022-12-18T10:26:06;101792.88;;;-2.01;72.15
32851;BME280;19202;48.992;8.390;2022-12-18T10:31:44;101784.78;;;-1.86;71.82
32851;BME280;19202;48.992;8.390;2022-12-18T10:37:24;101786.00;;;-1.77;71.79
32851;BME280;19202;48.992;8.390;2022-12-18T10:43:04;101786.00;;;-1.77;71.04
32851;BME280;19202;48.992;8.390;2022-12-18T10:54:25;101767.81;;;-2.00;71.06
32851;BME280;19202;48.992;8.390;2022-12-18T11:06:08;101768.34;;;-1.63;70.64
32851;BME280;19202;48.992;8.390;2022-12-18T11:11:51;101788.97;;;-1.42;70.28
32851;BME280;19202;48.992;8.390;2022-12-18T11:17:33;101784.50;;;-1.23;70.08
32851;BME280;19202;48.992;8.390;2022-12-18T11:23:13;101771.50;;;-0.98;69.63
32851;BME280;19202;48.992;8.390;2022-12-18T11:29:08;101765.66;;;-0.64;68.26
32851;BME280;19202;48.992;8.390;2022-12-18T11:34:51;101764.47;;;-0.48;68.24
32851;BME280;19202;48.992;8.390;2022-12-18T11:40:36;101761.94;;;-0.45;67.94
32851;BME280;19202;48.992;8.390;2022-12-18T11:46:23;101752.81;;;-0.33;67.43
32851;BME280;19202;48.992;8.390;2022-12-18T11:52:24;101740.19;;;-0.19;66.65
32851;BME280;19202;48.992;8.390;2022-12-18T11:58:24;101725.16;;;0.00;66.54
32851;BME280;19202;48.992;8.390;2022-12-18T12:04:18;101717.59;;;0.39;65.60
32851;BME280;19202;48.992;8.390;2022-12-18T12:10:15;101713.13;;;0.66;64.85
32851;BME280;19202;48.992;8.390;2022-12-18T12:16:29;101694.66;;;0.92;63.30
32851;BME280;19202;48.992;8.390;2022-12-18T12:22:25;101698.72;;;1.16;64.31
32851;BME280;19202;48.992;8.390;2022-12-18T12:34:24;101715.78;;;1.78;62.15
32851;BME280;19202;48.992;8.390;2022-12-18T12:40:04;101714.59;;;2.04;60.93
32851;BME280;19202;48.992;8.390;2022-12-18T12:46:11;101708.72;;;2.14;60.41
32851;BME280;19202;48.992;8.390;2022-12-18T12:58:28;101696.22;;;2.41;59.11
32851;BME280;19202;48.992;8.390;2022-12-18T13:04:23;101676.13;;;2.39;58.61
32851;BME280;19202;48.992;8.390;2022-12-18T13:16:06;101667.53;;;2.46;58.58
32851;BME280;19202;48.992;8.390;2022-12-18T13:21:53;101657.88;;;2.40;58.96
32851;BME280;19202;48.992;8.390;2022-12-18T13:28:06;101643.97;;;2.41;58.95
32851;BME280;19202;48.992;8.390;2022-12-18T13:33:47;101625.63;;;2.40;59.16
32851;BME280;19202;48.992;8.390;2022-12-18T13:39:31;101619.47;;;2.36;58.65
32851;BME280;19202;48.992;8.390;2022-12-18T13:45:35;101618.31;;;2.19;58.75
32851;BME280;19202;48.992;8.390;2022-12-18T13:51:17;101613.81;;;2.12;59.38
32851;BME280;19202;48.992;8.390;2022-12-18T13:56:55;101626.84;;;2.09;59.79
32851;BME280;19202;48.992;8.390;2022-12-18T14:02:33;101614.47;;;2.01;59.82
32851;BME280;19202;48.992;8.390;2022-12-18T14:08:16;101616.75;;;1.84;60.10
32851;BME280;19202;48.992;8.390;2022-12-18T14:13:54;101623.19;;;1.58;61.35
32851;BME280;19202;48.992;8.390;2022-12-18T14:19:33;101616.91;;;1.48;61.69
32851;BME280;19202;48.992;8.390;2022-12-18T14:30:49;101617.09;;;0.80;64.24
32851;BME280;19202;48.992;8.390;2022-12-18T14:36:28;101620.16;;;0.64;64.60
32851;BME280;19202;48.992;8.390;2022-12-18T14:42:10;101618.28;;;0.58;65.29
32851;BME280;19202;48.992;8.390;2022-12-18T14:47:48;101610.47;;;0.58;65.32
32851;BME280;19202;48.992;8.390;2022-12-18T14:53:36;101614.81;;;0.58;65.66
32851;BME280;19202;48.992;8.390;2022-12-18T14:59:18;101605.13;;;0.52;65.73
32851;BME280;19202;48.992;8.390;2022-12-18T15:05:14;101610.03;;;0.40;66.14
32851;BME280;19202;48.992;8.390;2022-12-18T15:10:53;101602.72;;;0.27;66.37
32851;BME280;19202;48.992;8.390;2022-12-18T15:16:31;101612.00;;;0.16;66.47
32851;BME280;19202;48.992;8.390;2022-12-18T15:22:22;101602.09;;;0.03;66.90
32851;BME280;19202;48.992;8.390;2022-12-18T15:28:03;101603.59;;;-0.05;67.01
32851;BME280;19202;48.992;8.390;2022-12-18T15:33:44;101600.00;;;-0.10;67.34
32851;BME280;19202;48.992;8.390;2022-12-18T15:39:23;101601.59;;;-0.15;67.41
32851;BME280;19202;48.992;8.390;2022-12-18T15:45:01;101605.75;;;-0.22;67.26
32851;BME280;19202;48.992;8.390;2022-12-18T15:50:40;101596.84;;;-0.30;67.64
32851;BME280;19202;48.992;8.390;2022-12-18T15:56:18;101598.06;;;-0.48;68.25
32851;BME280;19202;48.992;8.390;2022-12-18T16:02:17;101599.38;;;-0.62;69.93
32851;BME280;19202;48.992;8.390;2022-12-18T16:07:55;101599.09;;;-0.71;70.62
32851;BME280;19202;48.992;8.390;2022-12-18T16:13:33;101605.78;;;-0.79;71.57
32851;BME280;19202;48.992;8.390;2022-12-18T16:19:11;101610.25;;;-0.75;71.25
32851;BME280;19202;48.992;8.390;2022-12-18T16:24:51;101608.31;;;-0.82;71.80
32851;BME280;19202;48.992;8.390;2022-12-18T16:30:30;101598.47;;;-0.93;72.14
32851;BME280;19202;48.992;8.390;2022-12-18T16:36:08;101599.31;;;-0.94;72.67
32851;BME280;19202;48.992;8.390;2022-12-18T16:41:47;101594.06;;;-0.95;72.67
32851;BME280;19202;48.992;8.390;2022-12-18T16:47:26;101590.69;;;-0.93;72.59
32851;BME280;19202;48.992;8.390;2022-12-18T16:53:04;101593.91;;;-1.00;73.22
32851;BME280;19202;48.992;8.390;2022-12-18T16:58:41;101587.03;;;-0.99;73.14
32851;BME280;19202;48.992;8.390;2022-12-18T17:04:19;101592.75;;;-1.09;73.93
32851;BME280;19202;48.992;8.390;2022-12-18T17:09:58;101582.34;;;-1.11;73.06
32851;BME280;19202;48.992;8.390;2022-12-18T17:15:36;101588.84;;;-1.23;73.61
32851;BME280;19202;48.992;8.390;2022-12-18T17:21:15;101580.69;;;-1.35;73.93
32851;BME280;19202;48.992;8.390;2022-12-18T17:26:53;101583.28;;;-1.35;74.69
32851;BME280;19202;48.992;8.390;2022-12-18T17:32:31;101583.25;;;-1.37;74.26
32851;BME280;19202;48.992;8.390;2022-12-18T17:38:08;101578.59;;;-1.47;74.93
32851;BME280;19202;48.992;8.390;2022-12-18T17:43:56;101583.63;;;-1.51;75.32
32851;BME280;19202;48.992;8.390;2022-12-18T17:49:34;101588.69;;;-1.54;74.92
32851;BME280;19202;48.992;8.390;2022-12-18T17:55:12;101576.94;;;-1.70;75.83
32851;BME280;19202;48.992;8.390;2022-12-18T18:00:50;101581.00;;;-1.78;75.80
32851;BME280;19202;48.992;8.390;2022-12-18T18:06:28;101576.75;;;-1.76;76.37
32851;BME280;19202;48.992;8.390;2022-12-18T18:12:07;101578.03;;;-1.89;77.07
32851;BME280;19202;48.992;8.390;2022-12-18T18:18:05;101591.16;;;-1.84;77.14
32851;BME280;19202;48.992;8.390;2022-12-18T18:23:43;101598.94;;;-1.84;76.92
32851;BME280;19202;48.992;8.390;2022-12-18T18:29:23;101575.72;;;-1.81;76.76
32851;BME280;19202;48.992;8.390;2022-12-18T18:35:01;101585.41;;;-1.76;76.48
32851;BME280;19202;48.992;8.390;2022-12-18T18:40:39;101569.16;;;-1.70;75.82
32851;BME280;19202;48.992;8.390;2022-12-18T18:46:17;101550.38;;;-1.63;75.93
32851;BME280;19202;48.992;8.390;2022-12-18T18:51:56;101539.28;;;-1.59;75.64
32851;BME280;19202;48.992;8.390;2022-12-18T18:57:34;101538.34;;;-1.61;75.78
32851;BME280;19202;48.992;8.390;2022-12-18T19:03:12;101529.63;;;-1.63;76.27
32851;BME280;19202;48.992;8.390;2022-12-18T19:08:52;101524.63;;;-1.57;76.13
32851;BME280;19202;48.992;8.390;2022-12-18T19:14:30;101523.94;;;-1.51;76.01
32851;BME280;19202;48.992;8.390;2022-12-18T19:20:08;101512.03;;;-1.45;75.78
32851;BME280;19202;48.992;8.390;2022-12-18T19:25:47;101505.25;;;-1.40;75.72
32851;BME280;19202;48.992;8.390;2022-12-18T19:31:25;101510.75;;;-1.31;75.36
32851;BME280;19202;48.992;8.390;2022-12-18T19:37:03;101507.78;;;-1.43;76.89
32851;BME280;19202;48.992;8.390;2022-12-18T19:42:41;101501.56;;;-1.46;77.12
32851;BME280;19202;48.992;8.390;2022-12-18T19:48:19;101502.84;;;-1.34;76.91
32851;BME280;19202;48.992;8.390;2022-12-18T19:53:59;101495.47;;;-1.20;76.76
32851;BME280;19202;48.992;8.390;2022-12-18T19:59:36;101450.75;;;-1.10;76.42
32851;BME280;19202;48.992;8.390;2022-12-18T20:05:15;101489.03;;;-1.05;76.39
32851;BME280;19202;48.992;8.390;2022-12-18T20:10:52;101504.50;;;-1.08;76.91
32851;BME280;19202;48.992;8.390;2022-12-18T20:16:31;101492.28;;;-1.10;76.85
32851;BME280;19202;48.992;8.390;2022-12-18T20:22:09;101522.69;;;-1.08;76.80
32851;BME280;19202;48.992;8.390;2022-12-18T20:27:47;101520.81;;;-1.12;76.68
32851;BME280;19202;48.992;8.390;2022-12-18T20:33:25;101514.75;;;-1.12;76.77
32851;BME280;19202;48.992;8.390;2022-12-18T20:39:04;101512.13;;;-1.14;76.99
32851;BME280;19202;48.992;8.390;2022-12-18T20:44:42;101507.59;;;-1.21;77.16
32851;BME280;19202;48.992;8.390;2022-12-18T20:50:20;101490.97;;;-1.26;77.40
32851;BME280;19202;48.992;8.390;2022-12-18T20:55:58;101508.41;;;-1.22;77.06
32851;BME280;19202;48.992;8.390;2022-12-18T21:01:36;101487.75;;;-1.19;76.55
32851;BME280;19202;48.992;8.390;2022-12-18T21:07:15;101499.09;;;-1.15;76.75
32851;BME280;19202;48.992;8.390;2022-12-18T21:12:53;101483.50;;;-1.15;76.71
32851;BME280;19202;48.992;8.390;2022-12-18T21:18:31;101485.88;;;-1.23;77.25
32851;BME280;19202;48.992;8.390;2022-12-18T21:24:09;101460.09;;;-1.17;77.15
32851;BME280;19202;48.992;8.390;2022-12-18T21:29:47;101459.53;;;-1.07;76.76
32851;BME280;19202;48.992;8.390;2022-12-18T21:35:25;101481.41;;;-0.99;76.69
32851;BME280;19202;48.992;8.390;2022-12-18T21:41:06;101479.63;;;-1.00;76.70
32851;BME280;19202;48.992;8.390;2022-12-18T21:46:46;101452.88;;;-0.97;76.34
32851;BME280;19202;48.992;8.390;2022-12-18T21:52:24;101438.41;;;-0.88;76.20
32851;BME280;19202;48.992;8.390;2022-12-18T21:58:02;101474.88;;;-0.84;76.43
32851;BME280;19202;48.992;8.390;2022-12-18T22:03:40;101474.13;;;-0.80;76.32
32851;BME280;19202;48.992;8.390;2022-12-18T22:09:20;101479.09;;;-0.88;76.70
32851;BME280;19202;48.992;8.390;2022-12-18T22:14:58;101498.31;;;-0.83;76.52
32851;BME280;19202;48.992;8.390;2022-12-18T22:20:36;101482.72;;;-0.83;76.51
32851;BME280;19202;48.992;8.390;2022-12-18T22:26:14;101458.63;;;-0.77;76.59
32851;BME280;19202;48.992;8.390;2022-12-18T22:31:52;101482.34;;;-0.65;76.20
32851;BME280;19202;48.992;8.390;2022-12-18T22:37:31;101502.31;;;-0.64;76.12
32851;BME280;19202;48.992;8.390;2022-12-18T22:43:09;101514.25;;;-0.71;76.59
32851;BME280;19202;48.992;8.390;2022-12-18T22:48:48;101527.25;;;-0.69;76.58
32851;BME280;19202;48.992;8.390;2022-12-18T22:54:26;101499.53;;;-0.70;76.81
32851;BME280;19202;48.992;8.390;2022-12-18T23:00:05;101497.88;;;-0.68;76.74
32851;BME280;19202;48.992;8.390;2022-12-18T23:05:44;101501.56;;;-0.60;76.55
32851;BME280;19202;48.992;8.390;2022-12-18T23:11:22;101492.06;;;-0.58;76.54
32851;BME280;19202;48.992;8.390;2022-12-18T23:17:01;101491.06;;;-0.63;76.50
32851;BME280;19202;48.992;8.390;2022-12-18T23:22:38;101489.25;;;-0.66;76.82
32851;BME280;19202;48.992;8.390;2022-12-18T23:28:17;101475.56;;;-0.60;76.50
32851;BME280;19202;48.992;8.390;2022-12-18T23:33:56;101467.16;;;-0.50;76.48
32851;BME280;19202;48.992;8.390;2022-12-18T23:39:34;101453.41;;;-0.46;76.16
32851;BME280;19202;48.992;8.390;2022-12-18T23:45:12;101445.72;;;-0.42;76.33
32851;BME280;19202;48.992;8.390;2022-12-18T23:50:50;101445.97;;;-0.33;76.06
32851;BME280;19202;48.992;8.390;2022-12-18T23:56:28;101443.53;;;-0.25;75.87
